Time;durP1;ratioP1;P1;durP2;ratioP2;P2;SDS_P1;SDS_P2;PMS_P1;PMS_P2;Temp;Humidity;BMP_temperature;BMP_pressure;BME280_temperature;BME280_humidity;BME280_pressure;Samples;Min_cycle;Max_cycle;Signal;HPM_P1;HPM_P2
2022/01/04 00:00:49;;;;;;;;;;;;;;;10.40;70.71;100171.09;5098195;28;20015;-68
2022/01/04 00:03:14;;;;;;;;;;;;;;;10.40;70.53;100165.56;5078543;28;20013;-68
2022/01/04 00:05:40;;;;;;;;;;;;;;;10.39;70.97;100161.13;5090191;28;19920;-68
2022/01/04 00:08:08;;;;;;;;;;;;;;;10.40;70.60;100154.47;5096329;28;19927;-68
2022/01/04 00:10:34;;;;;;;;;;;;;;;10.41;70.74;100150.56;5100106;28;19920;-68
2022/01/04 00:15:44;;;;;;;;;;;;;;;10.39;70.70;100154.75;5076638;28;19936;-68
2022/01/04 00:18:09;;;;;;;;;;;;;;;10.39;70.68;100138.94;5096996;28;19930;-68
2022/01/04 00:20:34;;;;;;;;;;;;;;;10.40;70.57;100145.31;5095947;28;20018;-68
2022/01/04 00:23:00;;;;;;;;;;;;;;;10.40;71.04;100143.38;5091194;28;19975;-68
2022/01/04 00:25:25;;;;;;;;;;;;;;;10.41;70.61;100138.66;5082268;28;19927;-67
2022/01/04 00:27:50;;;;;;;;;;;;;;;10.39;70.54;100130.59;5114698;28;19920;-68
2022/01/04 00:30:16;;;;;;;;;;;;;;;10.37;70.40;100116.16;5109654;28;19915;-68
2022/01/04 00:32:41;;;;;;;;;;;;;;;10.34;70.72;100108.41;5076850;28;19970;-68
2022/01/04 00:35:07;;;;;;;;;;;;;;;10.33;70.73;100101.16;5091683;28;20291;-68
2022/01/04 00:37:32;;;;;;;;;;;;;;;10.34;70.72;100097.31;5105898;28;20279;-68
2022/01/04 00:39:58;;;;;;;;;;;;;;;10.34;70.78;100088.16;5099136;28;19919;-68
2022/01/04 00:42:23;;;;;;;;;;;;;;;10.28;70.61;100085.31;5106620;28;19916;-67
2022/01/04 00:44:48;;;;;;;;;;;;;;;10.30;70.79;100074.81;5088111;28;19928;-68
2022/01/04 00:47:13;;;;;;;;;;;;;;;10.30;70.79;100076.75;5077769;28;19974;-68
2022/01/04 00:49:39;;;;;;;;;;;;;;;10.32;70.76;100071.75;5084257;28;19928;-68
2022/01/04 00:52:04;;;;;;;;;;;;;;;10.32;70.91;100074.53;5091982;28;20388;-68
2022/01/04 00:54:29;;;;;;;;;;;;;;;10.31;70.74;100075.66;5104365;28;19928;-68
2022/01/04 00:56:54;;;;;;;;;;;;;;;10.28;70.74;100068.69;5090464;28;20256;-68
2022/01/04 00:59:20;;;;;;;;;;;;;;;10.24;70.75;100072.25;5101000;28;20014;-68
2022/01/04 01:01:45;;;;;;;;;;;;;;;10.22;70.48;100052.28;5086672;28;19919;-68
2022/01/04 01:04:10;;;;;;;;;;;;;;;10.22;70.79;100050.34;5095882;28;20016;-68
2022/01/04 01:06:35;;;;;;;;;;;;;;;10.23;70.87;100045.63;5096353;28;19927;-68
2022/01/04 01:09:01;;;;;;;;;;;;;;;10.23;70.88;100049.22;5093070;28;19923;-67
2022/01/04 01:11:26;;;;;;;;;;;;;;;10.24;70.84;100047.28;5092435;28;19927;-68
2022/01/04 01:13:51;;;;;;;;;;;;;;;10.24;70.86;100050.06;5089567;28;20454;-68
2022/01/04 01:16:17;;;;;;;;;;;;;;;10.23;70.88;100043.69;5103630;28;19922;-68
2022/01/04 01:18:42;;;;;;;;;;;;;;;10.21;70.79;100054.19;5087196;28;20295;-68
2022/01/04 01:21:08;;;;;;;;;;;;;;;10.19;70.90;100048.09;5088976;28;19924;-67
2022/01/04 01:23:34;;;;;;;;;;;;;;;10.17;70.94;100044.75;5084996;28;19920;-68
2022/01/04 01:26:00;;;;;;;;;;;;;;;10.17;70.91;100041.13;5100149;28;19920;-68
2022/01/04 01:28:26;;;;;;;;;;;;;;;10.17;70.79;100032.81;5101907;28;19976;-68
2022/01/04 01:30:52;;;;;;;;;;;;;;;10.17;70.85;100030.06;5105368;28;20213;-68
2022/01/04 01:33:17;;;;;;;;;;;;;;;10.18;70.86;100028.94;5088954;28;20066;-68
2022/01/04 01:35:43;;;;;;;;;;;;;;;10.18;70.74;100023.38;5094071;28;19974;-68
2022/01/04 01:38:08;;;;;;;;;;;;;;;10.18;70.90;100017.84;5074683;28;19927;-67
2022/01/04 01:40:34;;;;;;;;;;;;;;;10.18;70.85;100009.53;5090256;28;20371;-67
2022/01/04 01:42:59;;;;;;;;;;;;;;;10.17;70.77;100005.91;5100696;28;19920;-68
2022/01/04 01:45:24;;;;;;;;;;;;;;;10.18;70.90;100006.75;5089493;28;19966;-68
2022/01/04 01:47:50;;;;;;;;;;;;;;;10.16;70.86;100004.25;5084896;28;20010;-68
2022/01/04 01:50:16;;;;;;;;;;;;;;;10.16;70.87;100004.25;5082090;28;19964;-68
2022/01/04 01:52:43;;;;;;;;;;;;;;;10.17;70.92;100000.38;5099363;28;19931;-66
2022/01/04 01:55:09;;;;;;;;;;;;;;;10.19;70.89;100008.44;5097735;28;20387;-65
2022/01/04 01:57:34;;;;;;;;;;;;;;;10.19;70.87;100002.91;5085596;28;19946;-66
2022/01/04 02:00:00;;;;;;;;;;;;;;;10.19;70.74;100000.13;5095375;28;20022;-65
2022/01/04 02:02:25;;;;;;;;;;;;;;;10.17;70.56;100002.31;5092896;28;20366;-65
2022/01/04 02:04:50;;;;;;;;;;;;;;;10.09;70.87;99998.13;5080243;28;19926;-67
2022/01/04 02:07:16;;;;;;;;;;;;;;;10.09;71.01;99984.25;5104784;28;19916;-67
2022/01/04 02:09:47;;;;;;;;;;;;;;;10.12;70.85;99974.59;5087429;28;19939;-67
2022/01/04 02:12:13;;;;;;;;;;;;;;;10.12;70.74;99974.59;5093418;28;20423;-67
2022/01/04 02:14:38;;;;;;;;;;;;;;;10.11;70.79;99968.19;5097592;28;20027;-68
2022/01/04 02:17:03;;;;;;;;;;;;;;;10.09;70.92;99965.69;5087964;28;19920;-68
2022/01/04 02:19:33;;;;;;;;;;;;;;;10.11;70.69;99959.06;5106395;28;19917;-67
2022/01/04 02:22:00;;;;;;;;;;;;;;;10.09;70.77;99948.22;5085392;28;20370;-67
2022/01/04 02:24:25;;;;;;;;;;;;;;;10.08;70.71;99954.88;5092618;28;20365;-68
2022/01/04 02:26:51;;;;;;;;;;;;;;;10.08;70.63;99955.69;5090017;28;20081;-67
2022/01/04 02:29:16;;;;;;;;;;;;;;;10.08;70.81;99947.38;5077672;28;20003;-68
2022/01/04 02:31:41;;;;;;;;;;;;;;;10.06;70.80;99948.75;5097237;28;19920;-68
2022/01/04 02:34:06;;;;;;;;;;;;;;;10.04;70.75;99946.25;5094383;28;19927;-68
2022/01/04 02:36:32;;;;;;;;;;;;;;;10.05;70.80;99945.16;5087690;28;19916;-68
2022/01/04 02:38:57;;;;;;;;;;;;;;;10.06;70.58;99946.84;5078685;28;19920;-68
2022/01/04 02:41:22;;;;;;;;;;;;;;;10.06;70.58;99943.22;5082699;28;19927;-68
2022/01/04 02:43:47;;;;;;;;;;;;;;;10.04;70.96;99943.50;5089670;28;19920;-68
2022/01/04 02:46:12;;;;;;;;;;;;;;;10.07;70.63;99942.13;5087605;28;19930;-66
2022/01/04 02:48:42;;;;;;;;;;;;;;;10.07;70.38;99937.41;5085179;28;19927;-66
2022/01/04 02:51:07;;;;;;;;;;;;;;;10.06;70.54;99932.97;5096208;28;19938;-66
2022/01/04 02:53:32;;;;;;;;;;;;;;;9.94;70.54;99929.63;5111185;28;20382;-66
2022/01/04 02:55:57;;;;;;;;;;;;;;;9.91;70.59;99923.78;5083510;28;20379;-66
2022/01/04 02:58:23;;;;;;;;;;;;;;;9.91;70.80;99919.06;5093265;28;19921;-66
2022/01/04 03:00:48;;;;;;;;;;;;;;;9.87;70.83;99912.41;5094670;28;20359;-66
2022/01/04 03:03:13;;;;;;;;;;;;;;;9.90;70.84;99914.59;5096284;28;19920;-66
2022/01/04 03:05:38;;;;;;;;;;;;;;;9.91;70.63;99896.88;5083004;28;19928;-66
2022/01/04 03:08:03;;;;;;;;;;;;;;;9.93;70.79;99902.97;5105559;28;19959;-66
2022/01/04 03:10:29;;;;;;;;;;;;;;;9.92;70.91;99904.09;5092503;28;19927;-66
2022/01/04 03:12:54;;;;;;;;;;;;;;;9.93;70.96;99889.13;5083176;28;19928;-66
2022/01/04 03:15:19;;;;;;;;;;;;;;;9.93;70.39;99883.56;5080460;28;19920;-67
2022/01/04 03:17:44;;;;;;;;;;;;;;;9.93;70.71;99880.81;5108360;28;19920;-66
2022/01/04 03:20:10;;;;;;;;;;;;;;;9.94;70.84;99879.72;5087913;28;19923;-66
2022/01/04 03:22:35;;;;;;;;;;;;;;;9.94;70.84;99870.53;5096264;28;20322;-66
2022/01/04 03:25:01;;;;;;;;;;;;;;;9.93;70.59;99861.41;5106551;28;19960;-66
2022/01/04 03:27:26;;;;;;;;;;;;;;;9.92;70.73;99854.19;5086671;28;19916;-67
2022/01/04 03:29:51;;;;;;;;;;;;;;;9.94;70.63;99857.53;5093872;28;20432;-66
2022/01/04 03:32:16;;;;;;;;;;;;;;;9.95;70.38;99841.75;5089954;28;20488;-67
2022/01/04 03:34:42;;;;;;;;;;;;;;;9.92;70.63;99836.72;5094607;28;19924;-67
2022/01/04 03:37:07;;;;;;;;;;;;;;;9.86;70.64;99835.03;5092657;28;20335;-66
2022/01/04 03:39:32;;;;;;;;;;;;;;;9.83;70.54;99826.19;5093746;28;19967;-66
2022/01/04 03:41:57;;;;;;;;;;;;;;;9.82;70.67;99827.31;5102739;28;20003;-66
2022/01/04 03:44:22;;;;;;;;;;;;;;;9.84;70.52;99813.16;5088341;28;19968;-66
2022/01/04 03:46:49;;;;;;;;;;;;;;;9.81;70.95;99811.75;5079785;28;20390;-66
2022/01/04 03:49:14;;;;;;;;;;;;;;;9.77;71.03;99798.72;5088166;28;20385;-66
2022/01/04 03:51:40;;;;;;;;;;;;;;;9.77;70.59;99798.72;5093181;28;19920;-66
2022/01/04 03:54:05;;;;;;;;;;;;;;;9.77;71.00;99790.41;5092643;28;19950;-67
2022/01/04 03:56:30;;;;;;;;;;;;;;;9.75;70.69;99793.47;5087670;28;20006;-67
2022/01/04 03:58:55;;;;;;;;;;;;;;;9.73;70.81;99789.28;5094657;28;20024;-66
2022/01/04 04:01:20;;;;;;;;;;;;;;;9.72;71.01;99785.69;5098436;28;20057;-66
2022/01/04 04:03:46;;;;;;;;;;;;;;;9.75;70.58;99784.31;5093869;28;19962;-66
2022/01/04 04:06:11;;;;;;;;;;;;;;;9.75;70.94;99771.28;5092722;28;19928;-66
2022/01/04 04:08:36;;;;;;;;;;;;;;;9.71;71.39;99770.19;5098125;28;19920;-66
2022/01/04 04:11:01;;;;;;;;;;;;;;;9.70;71.11;99764.91;5092169;28;19977;-66
2022/01/04 04:13:26;;;;;;;;;;;;;;;9.73;71.03;99764.34;5092626;28;20081;-66
2022/01/04 04:15:52;;;;;;;;;;;;;;;9.74;70.84;99760.47;5092336;28;19928;-66
2022/01/04 04:18:17;;;;;;;;;;;;;;;9.74;71.10;99758.53;5103781;28;19995;-67
2022/01/04 04:20:42;;;;;;;;;;;;;;;9.76;70.81;99753.56;5084949;28;19966;-66
2022/01/04 04:23:08;;;;;;;;;;;;;;;9.78;70.75;99748.56;5072768;28;19920;-67
2022/01/04 04:25:33;;;;;;;;;;;;;;;9.78;71.13;99736.63;5091600;28;20291;-68
2022/01/04 04:27:58;;;;;;;;;;;;;;;9.79;70.66;99743.88;5099245;28;19919;-67
2022/01/04 04:30:24;;;;;;;;;;;;;;;9.80;70.46;99734.44;5098015;28;19920;-67
2022/01/04 04:32:49;;;;;;;;;;;;;;;9.81;70.79;99745.25;5090987;28;19920;-67
2022/01/04 04:35:15;;;;;;;;;;;;;;;9.83;70.60;99745.00;5107326;28;19954;-67
2022/01/04 04:37:40;;;;;;;;;;;;;;;9.86;70.85;99738.03;5092277;28;20054;-66
2022/01/04 04:40:06;;;;;;;;;;;;;;;9.84;70.73;99735.56;5095060;28;19971;-67
2022/01/04 04:42:31;;;;;;;;;;;;;;;9.86;71.05;99736.09;5083656;28;19967;-67
2022/01/04 04:44:56;;;;;;;;;;;;;;;9.84;70.95;99730.84;5091647;28;19953;-67
2022/01/04 04:47:22;;;;;;;;;;;;;;;9.84;70.81;99736.38;5081984;28;20023;-67
2022/01/04 04:49:47;;;;;;;;;;;;;;;9.86;71.02;99729.72;5092158;28;19920;-66
2022/01/04 04:52:12;;;;;;;;;;;;;;;9.83;70.71;99731.97;5094136;28;20294;-67
2022/01/04 04:54:37;;;;;;;;;;;;;;;9.85;70.74;99742.75;5100970;28;19920;-66
2022/01/04 04:57:02;;;;;;;;;;;;;;;9.84;70.51;99739.16;5081701;28;19925;-67
2022/01/04 04:59:28;;;;;;;;;;;;;;;9.85;71.05;99739.97;5108942;28;19930;-67
2022/01/04 05:01:53;;;;;;;;;;;;;;;9.83;70.92;99731.97;5096694;28;19912;-67
2022/01/04 05:04:18;;;;;;;;;;;;;;;9.84;70.66;99736.38;5090036;28;20268;-68
2022/01/04 05:06:43;;;;;;;;;;;;;;;9.82;70.53;99722.00;5095078;28;19924;-67
2022/01/04 05:09:08;;;;;;;;;;;;;;;9.83;70.83;99723.66;5079835;28;20384;-67
2022/01/04 05:11:34;;;;;;;;;;;;;;;9.83;70.94;99733.91;5077664;28;19931;-67
2022/01/04 05:13:59;;;;;;;;;;;;;;;9.79;70.72;99725.31;5088178;28;20015;-67
2022/01/04 05:16:24;;;;;;;;;;;;;;;9.78;70.98;99728.31;5092611;28;19965;-67
2022/01/04 05:18:49;;;;;;;;;;;;;;;9.77;70.97;99716.41;5096048;28;19927;-67
2022/01/04 05:21:14;;;;;;;;;;;;;;;9.78;70.87;99720.00;5086062;28;19916;-67
2022/01/04 05:23:40;;;;;;;;;;;;;;;9.79;70.45;99716.16;5101467;28;19924;-68
2022/01/04 05:26:05;;;;;;;;;;;;;;;9.78;70.71;99701.44;5094480;28;19915;-68
2022/01/04 05:28:30;;;;;;;;;;;;;;;9.80;71.02;99710.34;5080100;28;19974;-69
2022/01/04 05:30:55;;;;;;;;;;;;;;;9.79;70.72;99705.06;5083615;28;19941;-68
2022/01/04 05:33:21;;;;;;;;;;;;;;;9.79;71.01;99707.84;5107817;28;20112;-68
2022/01/04 05:35:48;;;;;;;;;;;;;;;9.78;71.04;99692.31;5098455;28;20370;-68
2022/01/04 05:38:13;;;;;;;;;;;;;;;9.78;71.10;99687.59;5087529;28;20348;-67
2022/01/04 05:40:38;;;;;;;;;;;;;;;9.79;70.85;99682.91;5095687;28;19922;-68
2022/01/04 05:43:04;;;;;;;;;;;;;;;9.80;70.91;99670.72;5108272;28;19916;-68
2022/01/04 05:45:29;;;;;;;;;;;;;;;9.78;71.40;99681.22;5086761;28;19982;-68
2022/01/04 05:47:54;;;;;;;;;;;;;;;9.74;70.83;99669.84;5080137;28;19924;-68
2022/01/04 05:50:19;;;;;;;;;;;;;;;9.72;71.45;99660.19;5103307;28;20348;-68
2022/01/04 05:52:44;;;;;;;;;;;;;;;9.70;71.46;99670.69;5103203;28;19939;-67
2022/01/04 05:55:10;;;;;;;;;;;;;;;9.69;71.31;99667.09;5085732;28;20280;-68
2022/01/04 05:57:35;;;;;;;;;;;;;;;9.70;71.27;99670.69;5107529;28;19925;-68
2022/01/04 06:00:01;;;;;;;;;;;;;;;9.68;71.32;99672.91;5086213;28;19920;-68
2022/01/04 06:02:26;;;;;;;;;;;;;;;9.67;71.50;99665.69;5079620;28;19930;-68
2022/01/04 06:04:52;;;;;;;;;;;;;;;9.66;71.26;99677.88;5099235;28;20251;-67
2022/01/04 06:07:17;;;;;;;;;;;;;;;9.62;71.16;99662.94;5096645;28;19964;-68
2022/01/04 06:09:45;;;;;;;;;;;;;;;9.61;71.31;99656.56;5097338;28;19920;-68
2022/01/04 06:14:52;;;;;;;;;;;;;;;9.63;71.31;99661.81;5096680;28;19920;-67
2022/01/04 06:17:18;;;;;;;;;;;;;;;9.63;71.57;99656.28;5089297;28;19943;-67
2022/01/04 06:19:43;;;;;;;;;;;;;;;9.65;71.36;99665.16;5094550;28;19930;-68
2022/01/04 06:22:08;;;;;;;;;;;;;;;9.65;71.57;99662.38;5084688;28;20450;-69
2022/01/04 06:24:34;;;;;;;;;;;;;;;9.63;71.34;99653.50;5094795;28;19950;-67
2022/01/04 06:26:59;;;;;;;;;;;;;;;9.62;71.33;99640.75;5089078;28;20372;-68
2022/01/04 06:29:25;;;;;;;;;;;;;;;9.63;71.48;99643.28;5084727;28;20002;-68
2022/01/04 06:31:50;;;;;;;;;;;;;;;9.63;71.58;99647.97;5087900;28;20422;-68
2022/01/04 06:34:15;;;;;;;;;;;;;;;9.64;71.54;99641.34;5098823;28;20439;-66
2022/01/04 06:36:40;;;;;;;;;;;;;;;9.63;71.64;99656.28;5080108;28;19920;-67
2022/01/04 06:39:05;;;;;;;;;;;;;;;9.62;71.91;99641.59;5096588;28;21512;-67
2022/01/04 06:41:31;;;;;;;;;;;;;;;9.62;71.24;99627.75;5096166;28;19920;-67
2022/01/04 06:43:56;;;;;;;;;;;;;;;9.61;71.54;99639.09;5090400;28;19959;-67
2022/01/04 06:46:23;;;;;;;;;;;;;;;9.62;71.07;99654.63;5094622;28;20350;-67
2022/01/04 06:48:48;;;;;;;;;;;;;;;9.62;71.72;99638.00;5096249;28;19969;-66
2022/01/04 06:51:13;;;;;;;;;;;;;;;9.64;71.59;99633.03;5090874;28;20332;-66
2022/01/04 06:53:38;;;;;;;;;;;;;;;9.64;71.85;99622.78;5080414;28;19920;-67
2022/01/04 06:56:03;;;;;;;;;;;;;;;9.65;71.71;99627.19;5093188;28;19920;-67
2022/01/04 06:58:29;;;;;;;;;;;;;;;9.66;71.61;99619.72;5100703;28;19924;-67
2022/01/04 07:00:54;;;;;;;;;;;;;;;9.65;71.70;99610.56;5095386;28;19920;-67
2022/01/04 07:03:19;;;;;;;;;;;;;;;9.62;71.62;99618.59;5085757;28;19920;-67
2022/01/04 07:05:44;;;;;;;;;;;;;;;9.64;71.80;99627.47;5090583;28;20355;-64
2022/01/04 07:08:09;;;;;;;;;;;;;;;9.64;71.82;99614.47;5092994;28;20022;-64
2022/01/04 07:10:35;;;;;;;;;;;;;;;9.61;71.71;99605.88;5084404;28;19924;-64
2022/01/04 07:13:00;;;;;;;;;;;;;;;9.61;72.00;99594.78;5089563;28;19927;-65
2022/01/04 07:15:25;;;;;;;;;;;;;;;9.62;71.93;99593.66;5076776;28;19992;-64
2022/01/04 07:17:50;;;;;;;;;;;;;;;9.61;71.90;99589.25;5087433;28;19931;-64
2022/01/04 07:20:15;;;;;;;;;;;;;;;9.60;71.75;99596.72;5080451;28;19920;-66
2022/01/04 07:22:41;;;;;;;;;;;;;;;9.60;71.88;99596.72;5091070;28;20345;-65
2022/01/04 07:25:06;;;;;;;;;;;;;;;9.59;71.83;99601.44;5088489;28;19924;-66
2022/01/04 07:27:32;;;;;;;;;;;;;;;9.59;71.91;99593.13;5082029;28;20322;-66
2022/01/04 07:29:57;;;;;;;;;;;;;;;9.61;71.68;99586.47;5084034;28;19972;-66
2022/01/04 07:32:22;;;;;;;;;;;;;;;9.61;71.97;99580.94;5083410;28;19920;-66
2022/01/04 07:34:48;;;;;;;;;;;;;;;9.59;71.74;99565.44;5076272;28;19920;-66
2022/01/04 07:37:13;;;;;;;;;;;;;;;9.56;71.52;99568.75;5086209;28;20015;-66
2022/01/04 07:39:39;;;;;;;;;;;;;;;9.55;71.60;99564.31;5084373;28;19931;-66
2022/01/04 07:42:04;;;;;;;;;;;;;;;9.53;72.12;99551.84;5093083;28;19924;-66
2022/01/04 07:44:30;;;;;;;;;;;;;;;9.51;71.73;99560.44;5087703;28;19928;-63
2022/01/04 07:46:55;;;;;;;;;;;;;;;9.51;71.89;99557.69;5085635;28;19920;-64
2022/01/04 07:49:20;;;;;;;;;;;;;;;9.51;72.00;99559.59;5080499;28;19928;-68
2022/01/04 07:51:45;;;;;;;;;;;;;;;9.50;72.18;99567.06;5078639;28;19928;-63
2022/01/04 07:54:10;;;;;;;;;;;;;;;9.51;71.93;99579.84;5076097;28;19964;-64
2022/01/04 07:56:36;;;;;;;;;;;;;;;9.51;72.01;99582.59;5078973;28;19932;-63
2022/01/04 07:59:01;;;;;;;;;;;;;;;9.51;72.06;99581.75;5085704;28;19939;-63
2022/01/04 08:01:30;;;;;;;;;;;;;;;9.52;72.13;99588.97;5079891;28;19943;-63
2022/01/04 08:03:55;;;;;;;;;;;;;;;9.52;71.90;99589.81;5087632;28;19928;-63
2022/01/04 08:06:20;;;;;;;;;;;;;;;9.53;71.74;99572.06;5080606;28;19932;-64
2022/01/04 08:08:48;;;;;;;;;;;;;;;9.53;72.04;99572.06;5096741;28;19920;-63
2022/01/04 08:11:13;;;;;;;;;;;;;;;9.52;72.23;99570.41;5083476;28;19955;-62
2022/01/04 08:13:39;;;;;;;;;;;;;;;9.50;72.03;99572.63;5081433;28;19978;-66
2022/01/04 08:16:04;;;;;;;;;;;;;;;9.52;72.14;99573.19;5083107;28;20018;-69
2022/01/04 08:18:29;;;;;;;;;;;;;;;9.51;71.82;99568.75;5088229;28;19927;-68
2022/01/04 08:20:57;;;;;;;;;;;;;;;9.52;71.93;99580.66;5080350;28;19975;-66
2022/01/04 08:23:23;;;;;;;;;;;;;;;9.53;71.79;99585.91;5081386;28;20413;-66
2022/01/04 08:25:48;;;;;;;;;;;;;;;9.53;72.23;99585.09;5087277;28;19974;-69
2022/01/04 08:28:13;;;;;;;;;;;;;;;9.54;71.88;99581.19;5084564;28;19916;-66
2022/01/04 08:30:39;;;;;;;;;;;;;;;9.53;72.00;99580.38;5086643;28;19924;-66
2022/01/04 08:33:04;;;;;;;;;;;;;;;9.55;71.88;99583.72;5087380;28;20004;-66
2022/01/04 08:35:29;;;;;;;;;;;;;;;9.55;72.28;99583.72;5089658;28;19920;-65
2022/01/04 08:37:54;;;;;;;;;;;;;;;9.54;72.54;99581.19;5105458;28;20349;-65
2022/01/04 08:40:20;;;;;;;;;;;;;;;9.51;71.90;99590.91;5083005;28;19924;-68
2022/01/04 08:42:45;;;;;;;;;;;;;;;9.52;71.93;99592.56;5084795;28;20288;-70
2022/01/04 08:45:10;;;;;;;;;;;;;;;9.54;72.05;99614.44;5082417;28;19999;-66
2022/01/04 08:47:36;;;;;;;;;;;;;;;9.51;71.99;99612.22;5089698;28;19920;-66
2022/01/04 08:50:03;;;;;;;;;;;;;;;9.49;72.03;99603.38;5091668;28;20378;-67
2022/01/04 08:52:28;;;;;;;;;;;;;;;9.51;74.90;99610.31;5083024;28;20086;-66
2022/01/04 08:54:56;;;;;;;;;;;;;;;9.59;72.86;99622.78;5080254;28;19924;-66
2022/01/04 08:57:23;;;;;;;;;;;;;;;9.59;72.38;99623.59;5079043;28;20019;-66
2022/01/04 08:59:48;;;;;;;;;;;;;;;9.58;72.42;99616.38;5085131;28;19920;-68
2022/01/04 09:02:13;;;;;;;;;;;;;;;9.58;72.22;99616.38;5082913;28;19935;-67
2022/01/04 09:04:39;;;;;;;;;;;;;;;9.57;72.41;99622.22;5079462;28;19924;-67
2022/01/04 09:07:04;;;;;;;;;;;;;;;9.55;72.38;99597.56;5086309;28;20379;-63
2022/01/04 09:09:29;;;;;;;;;;;;;;;9.52;72.16;99598.13;5087852;28;19943;-66
2022/01/04 09:11:54;;;;;;;;;;;;;;;9.52;72.06;99600.88;5090602;28;20273;-66
2022/01/04 09:14:41;;;;;;;;;;;;;;;9.52;72.24;99606.41;5092020;28;19924;-67
2022/01/04 09:19:51;;;;;;;;;;;;;;;9.52;72.38;99594.50;5090689;28;19934;-67
2022/01/04 09:22:16;;;;;;;;;;;;;;;9.52;72.38;99589.81;5092938;28;19921;-68
2022/01/04 09:24:42;;;;;;;;;;;;;;;9.54;71.95;99593.09;5090182;28;19931;-69
2022/01/04 09:27:07;;;;;;;;;;;;;;;9.53;72.22;99602.53;5095811;28;20379;-68
2022/01/04 09:29:33;;;;;;;;;;;;;;;9.53;72.46;99621.94;5091078;28;19941;-67
2022/01/04 09:32:00;;;;;;;;;;;;;;;9.55;72.21;99622.50;5088283;28;19974;-68
2022/01/04 09:34:26;;;;;;;;;;;;;;;9.57;72.22;99622.22;5088379;28;20367;-69
2022/01/04 09:36:51;;;;;;;;;;;;;;;9.57;72.23;99623.03;5089901;28;19998;-69
2022/01/04 09:39:18;;;;;;;;;;;;;;;9.58;72.31;99621.91;5094502;28;19920;-69
2022/01/04 09:41:43;;;;;;;;;;;;;;;9.57;72.29;99617.50;5093065;28;19920;-67
2022/01/04 09:44:10;;;;;;;;;;;;;;;9.59;71.84;99620.00;5084958;28;19932;-66
2022/01/04 09:46:35;;;;;;;;;;;;;;;9.60;72.18;99616.13;5103019;28;19926;-64
2022/01/04 09:49:00;;;;;;;;;;;;;;;9.62;72.30;99618.59;5089743;28;20318;-66
2022/01/04 09:51:26;;;;;;;;;;;;;;;9.62;72.35;99624.13;5090191;28;19998;-67
2022/01/04 09:53:51;;;;;;;;;;;;;;;9.61;72.29;99626.09;5081249;28;20352;-64
2022/01/04 09:56:17;;;;;;;;;;;;;;;9.59;71.97;99618.06;5091951;28;19927;-67
2022/01/04 09:58:42;;;;;;;;;;;;;;;9.61;72.26;99605.88;5091548;28;19930;-67
2022/01/04 10:01:21;;;;;;;;;;;;;;;9.62;72.15;99607.53;5090970;28;20379;-62
2022/01/04 10:03:47;;;;;;;;;;;;;;;9.63;72.34;99611.94;5087981;28;20410;-60
2022/01/04 10:06:15;;;;;;;;;;;;;;;9.78;75.73;99612.78;5081205;28;19928;-59
2022/01/04 10:08:50;;;;;;;;;;;;;;;9.94;74.49;99612.75;5087011;28;19952;-64
2022/01/04 10:11:15;;;;;;;;;;;;;;;9.95;72.96;99608.91;5078756;28;20387;-64
2022/01/04 10:13:40;;;;;;;;;;;;;;;9.91;72.71;99597.53;5098786;28;19946;-61
2022/01/04 10:16:16;;;;;;;;;;;;;;;9.88;72.62;99592.53;5078568;28;19942;-62
2022/01/04 10:18:45;;;;;;;;;;;;;;;9.86;72.21;99588.38;5095936;28;20437;-63
2022/01/04 10:21:12;;;;;;;;;;;;;;;9.83;72.38;99578.72;5110102;28;20409;-62
2022/01/04 10:23:56;;;;;;;;;;;;;;;9.80;72.55;99582.84;5090943;28;19920;-62
2022/01/04 10:26:28;;;;;;;;;;;;;;;9.79;72.20;99580.38;5101254;28;19923;-64
2022/01/04 10:28:53;;;;;;;;;;;;;;;9.78;72.43;99587.81;5100557;28;19922;-65
2022/01/04 10:31:19;;;;;;;;;;;;;;;9.78;72.29;99575.91;5083542;28;19983;-64
2022/01/04 10:33:50;;;;;;;;;;;;;;;9.77;72.43;99579.81;5097883;28;20286;-64
2022/01/04 10:36:19;;;;;;;;;;;;;;;9.77;72.33;99579.81;5100362;28;19919;-64
2022/01/04 10:38:46;;;;;;;;;;;;;;;9.76;72.35;99575.38;5101621;28;19965;-64
2022/01/04 10:41:22;;;;;;;;;;;;;;;9.74;72.30;99569.28;5102941;28;19919;-64
2022/01/04 10:43:48;;;;;;;;;;;;;;;9.72;72.53;99571.50;5086858;28;19919;-64
2022/01/04 10:46:15;;;;;;;;;;;;;;;9.68;72.87;99575.94;5104430;28;20064;-64
2022/01/04 10:48:41;;;;;;;;;;;;;;;9.64;72.70;99577.63;5094619;28;19920;-64
2022/01/04 10:51:06;;;;;;;;;;;;;;;9.66;72.39;99567.06;5092675;28;20375;-65
2022/01/04 10:53:55;;;;;;;;;;;;;;;9.68;72.37;99571.22;5094004;28;19942;-69
2022/01/04 10:56:31;;;;;;;;;;;;;;;9.72;72.71;99568.75;5081569;28;19935;-66
2022/01/04 10:58:57;;;;;;;;;;;;;;;9.71;72.55;99576.22;5085227;28;19928;-66
2022/01/04 11:01:24;;;;;;;;;;;;;;;9.69;72.69;99575.66;5103593;28;19928;-64
2022/01/04 11:04:00;;;;;;;;;;;;;;;9.68;72.63;99567.63;5089727;28;19923;-68
2022/01/04 11:06:30;;;;;;;;;;;;;;;9.67;72.79;99566.81;5081469;28;20416;-65
2022/01/04 11:08:56;;;;;;;;;;;;;;;9.67;72.60;99569.59;5086666;28;19931;-70
2022/01/04 11:11:21;;;;;;;;;;;;;;;9.68;72.44;99556.56;5084894;28;20371;-68
2022/01/04 11:13:48;;;;;;;;;;;;;;;9.70;72.83;99557.09;5086080;28;19928;-69
2022/01/04 11:16:14;;;;;;;;;;;;;;;9.72;72.61;99554.88;5083886;28;19920;-69
2022/01/04 11:18:41;;;;;;;;;;;;;;;9.74;72.69;99547.09;5084526;28;19920;-68
2022/01/04 11:21:10;;;;;;;;;;;;;;;9.75;72.50;99557.94;5096722;28;19927;-69
2022/01/04 11:23:35;;;;;;;;;;;;;;;9.75;72.58;99552.38;5098826;28;19924;-69
2022/01/04 11:26:01;;;;;;;;;;;;;;;9.77;72.48;99571.50;5091342;28;20412;-70
2022/01/04 11:28:27;;;;;;;;;;;;;;;9.81;72.69;99569.81;5099426;28;19927;-68
2022/01/04 11:31:11;;;;;;;;;;;;;;;9.80;72.41;99565.41;5100445;28;19924;-67
2022/01/04 11:33:47;;;;;;;;;;;;;;;9.80;72.53;99566.22;5086979;28;19931;-71
2022/01/04 11:36:12;;;;;;;;;;;;;;;9.79;72.62;99574.84;5078315;28;20200;-70
2022/01/04 11:38:38;;;;;;;;;;;;;;;9.78;72.27;99593.38;5093824;28;19920;-72
2022/01/04 11:41:04;;;;;;;;;;;;;;;9.78;72.40;99612.78;5095346;28;19924;-71
2022/01/04 11:43:38;;;;;;;;;;;;;;;9.77;71.45;99629.69;5095288;28;19962;-73
2022/01/04 11:46:04;;;;;;;;;;;;;;;9.65;69.43;99629.97;5090210;28;19973;-71
2022/01/04 11:48:33;;;;;;;;;;;;;;;9.51;70.94;99628.84;5085959;28;19935;-70
2022/01/04 11:51:00;;;;;;;;;;;;;;;9.43;71.62;99612.78;5075501;28;20409;-71
2022/01/04 11:53:25;;;;;;;;;;;;;;;9.40;71.87;99624.44;5087346;28;20023;-72
2022/01/04 11:55:52;;;;;;;;;;;;;;;9.37;71.50;99622.19;5086756;28;20003;-73
2022/01/04 11:58:20;;;;;;;;;;;;;;;9.34;71.57;99618.84;5087575;28;21440;-71
2022/01/04 12:01:02;;;;;;;;;;;;;;;9.33;71.39;99624.69;5075536;28;20409;-68
2022/01/04 12:03:37;;;;;;;;;;;;;;;9.31;71.34;99624.13;5086807;28;20039;-71
2022/01/04 12:06:03;;;;;;;;;;;;;;;9.30;71.53;99626.06;5088564;28;19927;-69
2022/01/04 12:08:37;;;;;;;;;;;;;;;9.32;71.57;99623.84;5085988;28;19985;-71
2022/01/04 12:11:03;;;;;;;;;;;;;;;9.31;71.72;99624.97;5084212;28;19928;-67
2022/01/04 12:13:48;;;;;;;;;;;;;;;9.32;71.39;99617.50;5084563;28;19950;-68
2022/01/04 12:16:14;;;;;;;;;;;;;;;9.31;71.13;99627.75;5084724;28;19924;-69
2022/01/04 12:18:39;;;;;;;;;;;;;;;9.31;71.50;99611.13;5085870;28;19928;-65
2022/01/04 12:21:12;;;;;;;;;;;;;;;9.33;71.45;99617.22;5088963;28;19920;-68
2022/01/04 12:23:37;;;;;;;;;;;;;;;9.34;72.16;99604.19;5082198;28;19935;-65
2022/01/04 12:26:02;;;;;;;;;;;;;;;9.37;71.53;99595.34;5087602;28;19923;-65
2022/01/04 12:28:28;;;;;;;;;;;;;;;9.40;71.90;99597.56;5090090;28;19930;-66
2022/01/04 12:31:17;;;;;;;;;;;;;;;9.40;71.57;99600.31;5078994;28;19920;-66
2022/01/04 12:33:48;;;;;;;;;;;;;;;9.41;71.64;99590.91;5085717;28;20123;-66
2022/01/04 12:36:30;;;;;;;;;;;;;;;9.43;71.80;99585.94;5095346;28;19919;-64
2022/01/04 12:38:57;;;;;;;;;;;;;;;9.46;71.83;99593.66;5080456;28;19927;-67
2022/01/04 12:41:23;;;;;;;;;;;;;;;9.45;71.84;99577.34;5088443;28;19924;-65
2022/01/04 12:43:50;;;;;;;;;;;;;;;9.45;72.22;99575.41;5084505;28;19927;-67
2022/01/04 12:46:23;;;;;;;;;;;;;;;9.48;71.95;99574.84;5083342;28;19928;-66
2022/01/04 12:48:50;;;;;;;;;;;;;;;9.50;71.88;99567.06;5079793;28;19920;-63
2022/01/04 12:51:23;;;;;;;;;;;;;;;9.53;72.02;99572.06;5086898;28;20302;-66
2022/01/04 12:53:49;;;;;;;;;;;;;;;9.52;72.17;99567.66;5079822;28;20375;-68
2022/01/04 12:56:14;;;;;;;;;;;;;;;9.54;72.17;99568.19;5083577;28;19928;-71